Time;durP1;ratioP1;P1;durP2;ratioP2;P2;SDS_P1;SDS_P2;PMS_P1;PMS_P2;Temp;Humidity;BMP_temperature;BMP_pressure;BME280_temperature;BME280_humidity;BME280_pressure;Samples;Min_cycle;Max_cycle;Signal;HPM_P1;HPM_P2
2022/08/22 00:02:04;;;;;;;1.13;0.93;;;16.80;49.10;;;;;;5018728;28;20190;-75
2022/08/22 00:04:56;;;;;;;2.73;1.10;;;16.80;48.50;;;;;;5039439;28;20188;-78
2022/08/22 00:07:44;;;;;;;3.73;1.00;;;17.00;48.70;;;;;;5047390;28;20214;-81
2022/08/22 00:10:19;;;;;;;1.27;0.80;;;16.90;48.60;;;;;;5052750;28;20200;-81
2022/08/22 00:13:02;;;;;;;1.30;0.90;;;17.10;48.90;;;;;;5039959;28;20546;-77
2022/08/22 00:15:36;;;;;;;0.93;0.70;;;17.20;48.70;;;;;;5031514;28;20268;-78
2022/08/22 00:18:28;;;;;;;2.20;1.00;;;17.30;47.50;;;;;;5035518;28;20561;-78
2022/08/22 00:21:11;;;;;;;1.37;1.10;;;17.20;47.60;;;;;;5047394;28;20225;-81
2022/08/22 00:23:41;;;;;;;1.50;0.83;;;17.30;47.60;;;;;;5042873;28;20269;-82
2022/08/22 00:26:39;;;;;;;1.57;0.90;;;17.50;46.80;;;;;;5032700;28;20692;-79
2022/08/22 00:29:16;;;;;;;1.03;0.90;;;17.60;46.30;;;;;;5032752;28;20176;-78
2022/08/22 00:32:04;;;;;;;1.70;0.90;;;17.60;45.60;;;;;;5042055;28;20210;-82
2022/08/22 00:34:50;;;;;;;2.23;1.10;;;17.60;46.60;;;;;;5030883;28;20207;-76
2022/08/22 00:37:53;;;;;;;3.47;1.00;;;17.80;45.20;;;;;;5013934;28;20182;-79
2022/08/22 00:40:52;;;;;;;1.70;1.13;;;17.80;44.40;;;;;;5022026;28;20238;-76
2022/08/22 00:43:31;;;;;;;1.00;0.80;;;18.00;44.50;;;;;;5031966;28;20239;-76
2022/08/22 00:46:05;;;;;;;1.10;0.90;;;18.10;43.40;;;;;;5032221;28;20278;-79
2022/08/22 00:49:03;;;;;;;3.93;1.00;;;18.20;43.40;;;;;;5031648;28;20183;-78
2022/08/22 00:52:03;;;;;;;1.33;1.10;;;18.30;43.30;;;;;;5030976;28;20187;-78
2022/08/22 00:54:58;;;;;;;2.80;0.77;;;18.40;43.50;;;;;;5023203;28;20183;-79
2022/08/22 00:57:34;;;;;;;0.90;0.80;;;18.40;42.20;;;;;;5029160;28;20269;-76
2022/08/22 01:00:07;;;;;;;2.43;1.17;;;18.50;42.40;;;;;;5028116;28;20310;-73
2022/08/22 01:03:13;;;;;;;2.17;0.70;;;18.70;42.10;;;;;;5027550;28;20183;-79
2022/08/22 01:06:00;;;;;;;4.00;1.20;;;18.80;41.00;;;;;;5028662;28;20179;-73
2022/08/22 01:08:46;;;;;;;1.53;0.80;;;18.80;41.20;;;;;;5028061;28;20204;-78
2022/08/22 01:11:29;;;;;;;3.93;0.80;;;18.90;40.80;;;;;;5027176;28;20553;-80
2022/08/22 01:14:18;;;;;;;0.90;0.70;;;19.00;40.70;;;;;;5030033;28;20192;-74
2022/08/22 01:16:59;;;;;;;1.20;0.73;;;19.00;40.70;;;;;;5032387;28;20264;-77
2022/08/22 01:19:45;;;;;;;2.20;1.10;;;19.20;39.60;;;;;;5032145;28;20242;-78
2022/08/22 01:22:30;;;;;;;4.43;1.00;;;19.20;39.90;;;;;;5032023;28;20181;-76
2022/08/22 01:25:19;;;;;;;1.03;0.60;;;19.30;39.80;;;;;;5032116;28;20643;-77
2022/08/22 01:28:06;;;;;;;1.10;1.00;;;19.60;39.80;;;;;;5030772;28;20627;-80
2022/08/22 01:30:47;;;;;;;1.77;0.87;;;19.80;40.00;;;;;;5037718;28;20317;-78
2022/08/22 01:33:34;;;;;;;2.20;0.80;;;20.00;39.30;;;;;;5034894;28;20176;-80
2022/08/22 01:36:11;;;;;;;3.53;1.10;;;20.20;38.70;;;;;;5031295;28;20545;-86
2022/08/22 01:38:44;;;;;;;1.60;0.80;;;20.20;39.50;;;;;;5039781;28;20714;-81
2022/08/22 01:41:31;;;;;;;0.60;0.60;;;20.30;39.60;;;;;;5036360;28;20216;-80
2022/08/22 01:44:35;;;;;;;3.20;0.90;;;20.20;37.90;;;;;;5024412;28;20188;-82
2022/08/22 01:47:14;;;;;;;2.57;0.70;;;20.20;38.40;;;;;;5033294;28;20665;-78
2022/08/22 01:50:11;;;;;;;3.17;0.80;;;20.40;38.10;;;;;;5025164;28;20663;-78
2022/08/22 01:52:44;;;;;;;1.00;0.67;;;20.50;37.90;;;;;;5022128;28;20255;-83
2022/08/22 01:55:21;;;;;;;2.20;1.20;;;20.70;37.30;;;;;;5032706;28;20181;-76
2022/08/22 01:57:55;;;;;;;0.77;0.70;;;20.80;38.00;;;;;;5031869;28;20189;-80
2022/08/22 02:00:24;;;;;;;3.27;0.80;;;20.70;37.20;;;;;;5032845;28;20208;-74
2022/08/22 02:03:20;;;;;;;1.47;0.83;;;20.60;37.70;;;;;;5031835;28;20208;-78
2022/08/22 02:06:02;;;;;;;4.73;1.17;;;20.90;37.70;;;;;;5036553;28;20225;-79
2022/08/22 02:09:01;;;;;;;1.30;1.00;;;21.30;37.20;;;;;;5045721;28;20259;-77
2022/08/22 02:11:55;;;;;;;1.60;0.80;;;21.60;37.00;;;;;;5030841;28;20169;-78
2022/08/22 02:14:44;;;;;;;1.80;0.77;;;21.30;35.40;;;;;;5034150;28;20223;-80
2022/08/22 02:17:25;;;;;;;3.13;0.77;;;21.20;34.50;;;;;;5051335;28;20172;-77
2022/08/22 02:20:18;;;;;;;0.80;0.60;;;21.40;34.60;;;;;;5052358;28;20212;-75
2022/08/22 02:23:03;;;;;;;12.03;1.27;;;21.60;34.10;;;;;;5048302;28;20568;-76
2022/08/22 02:25:53;;;;;;;3.73;0.97;;;21.50;34.00;;;;;;5055580;28;20638;-78
2022/08/22 02:28:42;;;;;;;4.07;0.80;;;21.80;34.20;;;;;;5015852;28;20548;-75
2022/08/22 02:31:38;;;;;;;5.20;0.90;;;21.60;33.90;;;;;;5032821;28;20646;-81
2022/08/22 02:34:39;;;;;;;1.83;0.70;;;22.00;34.20;;;;;;5045187;28;20210;-82
2022/08/22 02:37:15;;;;;;;1.37;0.60;;;22.20;33.30;;;;;;5027421;28;20180;-78
2022/08/22 02:39:55;;;;;;;1.23;0.60;;;21.80;33.70;;;;;;5021360;28;20234;-77
2022/08/22 02:42:29;;;;;;;0.97;0.63;;;21.90;33.20;;;;;;5054703;28;20186;-78
2022/08/22 02:45:20;;;;;;;3.70;0.63;;;21.80;33.90;;;;;;5054864;28;20202;-77
2022/08/22 02:48:04;;;;;;;0.90;0.60;;;21.90;33.40;;;;;;5054599;28;20176;-79
2022/08/22 02:50:59;;;;;;;5.33;1.03;;;22.00;33.90;;;;;;5054554;28;20175;-77
2022/08/22 02:54:01;;;;;;;1.70;0.87;;;22.50;33.70;;;;;;5054576;28;20206;-76
2022/08/22 02:57:06;;;;;;;3.90;0.90;;;22.20;33.40;;;;;;5016341;28;20571;-80
2022/08/22 02:59:58;;;;;;;1.53;0.60;;;22.00;33.50;;;;;;5016634;28;20193;-82
2022/08/22 03:02:48;;;;;;;1.73;0.70;;;21.90;33.50;;;;;;5012683;28;20212;-78
2022/08/22 03:05:23;;;;;;;1.60;0.83;;;22.00;33.50;;;;;;4998177;28;20197;-81
2022/08/22 03:08:00;;;;;;;2.63;0.67;;;22.10;33.10;;;;;;5020403;28;20243;-77
2022/08/22 03:10:35;;;;;;;4.37;0.73;;;22.50;33.00;;;;;;5054070;28;20175;-79
2022/08/22 03:13:24;;;;;;;1.10;0.60;;;22.30;32.50;;;;;;5054132;28;20186;-78
2022/08/22 03:16:10;;;;;;;4.60;0.70;;;22.20;33.50;;;;;;5038291;28;20212;-79
2022/08/22 03:18:55;;;;;;;4.00;0.70;;;22.70;32.70;;;;;;5027740;28;20184;-77
2022/08/22 03:21:36;;;;;;;2.40;0.53;;;22.30;32.80;;;;;;5053817;28;20306;-75
2022/08/22 03:24:27;;;;;;;3.67;0.50;;;22.40;32.50;;;;;;5052314;28;20183;-77
2022/08/22 03:27:04;;;;;;;4.70;1.07;;;22.70;32.70;;;;;;5022986;28;20547;-78
2022/08/22 03:29:43;;;;;;;3.30;0.70;;;23.00;32.50;;;;;;5026944;28;20522;-78
2022/08/22 03:32:20;;;;;;;1.27;0.60;;;23.10;31.90;;;;;;5041485;28;20184;-74
2022/08/22 03:35:22;;;;;;;1.80;0.70;;;23.10;31.70;;;;;;5040313;28;20183;-79
2022/08/22 03:37:56;;;;;;;2.50;0.60;;;22.80;32.20;;;;;;5037253;28;20717;-80
2022/08/22 03:40:42;;;;;;;2.87;0.70;;;22.80;32.50;;;;;;5033625;28;20702;-78
2022/08/22 03:43:40;;;;;;;4.47;0.70;;;22.90;32.10;;;;;;5050370;28;20686;-75
2022/08/22 03:46:41;;;;;;;0.97;0.50;;;23.20;32.30;;;;;;5033138;28;20195;-77
2022/08/22 03:49:20;;;;;;;1.63;0.50;;;23.50;31.40;;;;;;5047991;28;20179;-75
2022/08/22 03:52:08;;;;;;;3.43;0.60;;;23.90;30.80;;;;;;5037227;28;20195;-76
2022/08/22 03:54:54;;;;;;;8.23;0.80;;;24.10;30.80;;;;;;5037865;28;20275;-77
2022/08/22 03:58:02;;;;;;;5.10;0.50;;;24.00;30.70;;;;;;5050825;28;20183;-76
2022/08/22 04:00:37;;;;;;;2.93;0.53;;;23.40;30.60;;;;;;5046344;28;20618;-74
2022/08/22 04:03:52;;;;;;;1.60;0.70;;;23.50;30.80;;;;;;5031564;28;20534;-75
2022/08/22 04:06:44;;;;;;;5.30;0.60;;;23.30;31.20;;;;;;5044291;28;20283;-76
2022/08/22 04:09:30;;;;;;;3.07;0.60;;;23.80;30.80;;;;;;5029319;28;20173;-75
2022/08/22 04:12:19;;;;;;;3.80;0.80;;;23.30;30.60;;;;;;5037448;28;20215;-75
2022/08/22 04:15:23;;;;;;;2.60;0.63;;;23.80;30.00;;;;;;5041716;28;20199;-76
2022/08/22 04:18:06;;;;;;;1.07;0.57;;;23.50;30.20;;;;;;5047339;28;20187;-76
2022/08/22 04:20:49;;;;;;;2.63;0.67;;;23.80;30.00;;;;;;5038782;28;20200;-77
2022/08/22 04:23:25;;;;;;;1.57;0.63;;;23.70;30.10;;;;;;5020931;28;20176;-74
2022/08/22 04:26:14;;;;;;;1.00;0.50;;;23.50;30.60;;;;;;5012983;28;20166;-74
2022/08/22 04:28:44;;;;;;;1.87;0.70;;;23.60;30.20;;;;;;5015967;28;20269;-76
2022/08/22 04:31:16;;;;;;;2.63;0.50;;;24.20;29.90;;;;;;5031301;28;20188;-78
2022/08/22 04:34:08;;;;;;;1.07;0.50;;;24.40;29.20;;;;;;5034036;28;20188;-78
2022/08/22 04:37:04;;;;;;;1.53;0.50;;;24.00;29.60;;;;;;5027989;28;20196;-76
2022/08/22 04:39:47;;;;;;;2.53;0.50;;;23.80;30.30;;;;;;5036480;28;20263;-78
2022/08/22 04:42:29;;;;;;;0.97;0.50;;;24.70;29.10;;;;;;5043578;28;20249;-75
2022/08/22 04:45:16;;;;;;;1.37;0.70;;;24.50;29.40;;;;;;5045866;28;20688;-79
2022/08/22 04:47:56;;;;;;;2.07;0.67;;;23.80;29.80;;;;;;5034087;28;20212;-75
2022/08/22 04:50:45;;;;;;;1.50;0.70;;;23.80;30.00;;;;;;5029653;28;20184;-81
2022/08/22 04:53:49;;;;;;;1.47;0.80;;;23.80;29.80;;;;;;5028479;28;20208;-77
2022/08/22 04:56:38;;;;;;;4.93;0.63;;;24.00;29.80;;;;;;5030314;28;20184;-77
2022/08/22 04:59:15;;;;;;;2.83;0.73;;;23.70;30.00;;;;;;5029547;28;20188;-78
2022/08/22 05:01:45;;;;;;;1.23;0.70;;;24.00;29.90;;;;;;5031342;28;20215;-79
2022/08/22 05:04:20;;;;;;;2.97;0.70;;;24.30;29.40;;;;;;5031630;28;20188;-78
2022/08/22 05:06:55;;;;;;;0.57;0.57;;;24.30;29.80;;;;;;5033600;28;20378;-75
2022/08/22 05:09:27;;;;;;;0.97;0.57;;;24.30;30.00;;;;;;5033123;28;20177;-81
2022/08/22 05:11:59;;;;;;;1.60;0.50;;;25.00;29.60;;;;;;5034019;28;20181;-79
2022/08/22 05:14:52;;;;;;;2.60;0.70;;;24.80;28.50;;;;;;5038951;28;20185;-74
2022/08/22 05:17:24;;;;;;;3.90;0.70;;;24.30;29.50;;;;;;5034159;28;20638;-76
2022/08/22 05:19:54;;;;;;;2.60;0.60;;;24.30;29.30;;;;;;5036302;28;20266;-84
2022/08/22 05:22:27;;;;;;;2.70;0.97;;;24.50;29.20;;;;;;5035815;28;20212;-73
2022/08/22 05:25:04;;;;;;;1.30;0.70;;;23.50;30.10;;;;;;5035708;28;20524;-79
2022/08/22 05:27:38;;;;;;;2.07;0.90;;;23.40;30.40;;;;;;5037850;28;20184;-78
2022/08/22 05:30:10;;;;;;;2.67;0.70;;;23.30;30.70;;;;;;5033341;28;20181;-74
2022/08/22 05:32:59;;;;;;;0.83;0.50;;;23.70;30.50;;;;;;5035118;28;20200;-75
2022/08/22 05:35:57;;;;;;;1.13;0.63;;;24.50;29.30;;;;;;5033934;28;20184;-76
2022/08/22 05:38:29;;;;;;;1.20;0.67;;;24.10;30.20;;;;;;5036762;28;20192;-73
2022/08/22 05:41:06;;;;;;;2.20;0.93;;;24.00;30.20;;;;;;5045651;28;20232;-78
2022/08/22 05:43:38;;;;;;;1.30;0.50;;;24.10;29.70;;;;;;5039056;28;20184;-79
2022/08/22 05:46:11;;;;;;;2.60;0.70;;;24.00;30.00;;;;;;5029477;28;20189;-77
2022/08/22 05:48:45;;;;;;;0.93;0.50;;;24.30;29.20;;;;;;5036894;28;20184;-74
2022/08/22 05:51:25;;;;;;;2.17;0.50;;;23.70;29.90;;;;;;5040700;28;20180;-75
2022/08/22 05:54:05;;;;;;;4.93;0.60;;;23.30;30.50;;;;;;5039432;28;20210;-73
2022/08/22 05:56:48;;;;;;;1.37;0.60;;;23.80;30.30;;;;;;5035957;28;20655;-76
2022/08/22 05:59:29;;;;;;;1.67;0.90;;;23.90;29.70;;;;;;5044427;28;20180;-77
2022/08/22 06:02:08;;;;;;;1.80;0.70;;;24.20;29.70;;;;;;5035717;28;20207;-73
2022/08/22 06:05:04;;;;;;;3.13;0.70;;;24.00;30.00;;;;;;5036514;28;20172;-74
2022/08/22 06:07:43;;;;;;;0.83;0.73;;;23.90;30.40;;;;;;5045910;28;20188;-79
2022/08/22 06:10:39;;;;;;;1.40;0.70;;;23.30;31.10;;;;;;5035025;28;20194;-77
2022/08/22 06:13:33;;;;;;;1.07;0.50;;;23.40;31.10;;;;;;5038729;28;20535;-79
2022/08/22 06:16:20;;;;;;;0.83;0.70;;;22.80;31.20;;;;;;5047324;28;20205;-78
2022/08/22 06:18:49;;;;;;;1.53;0.60;;;22.90;31.30;;;;;;5031389;28;20195;-80
2022/08/22 06:21:36;;;;;;;1.23;0.70;;;23.00;31.00;;;;;;5032430;28;20220;-75
2022/08/22 06:24:07;;;;;;;1.17;0.50;;;23.00;30.90;;;;;;5026209;28;20180;-82
2022/08/22 06:26:42;;;;;;;1.93;0.60;;;22.90;31.00;;;;;;5035199;28;20200;-78
2022/08/22 06:29:14;;;;;;;4.33;0.80;;;22.20;32.80;;;;;;5040197;28;20575;-78
2022/08/22 06:31:49;;;;;;;0.77;0.60;;;21.80;33.40;;;;;;5049517;28;20180;-76
2022/08/22 06:34:38;;;;;;;1.23;0.60;;;21.40;33.80;;;;;;5055138;28;20167;-77
2022/08/22 06:37:12;;;;;;;0.93;0.50;;;21.60;33.90;;;;;;5033155;28;20181;-77
2022/08/22 06:39:44;;;;;;;1.10;0.70;;;21.80;33.80;;;;;;5044582;28;20311;-76
2022/08/22 06:42:18;;;;;;;1.07;0.60;;;21.50;34.30;;;;;;5035613;28;20193;-74
2022/08/22 06:44:55;;;;;;;3.43;0.80;;;21.30;34.80;;;;;;5031903;28;20642;-78
2022/08/22 06:47:30;;;;;;;4.87;0.70;;;21.00;33.80;;;;;;5049400;28;20182;-75
2022/08/22 06:50:09;;;;;;;1.17;0.57;;;20.50;33.40;;;;;;5054583;28;20285;-75
2022/08/22 06:52:50;;;;;;;2.43;0.50;;;20.30;33.80;;;;;;5041112;28;20172;-82
2022/08/22 06:55:18;;;;;;;2.97;0.60;;;20.20;34.00;;;;;;5021495;28;20696;-74
2022/08/22 06:57:54;;;;;;;5.50;0.60;;;20.20;34.20;;;;;;5044330;28;20263;-84
2022/08/22 07:00:22;;;;;;;1.27;0.60;;;20.10;34.30;;;;;;5043145;28;20203;-84
2022/08/22 07:02:58;;;;;;;1.53;0.90;;;19.90;34.50;;;;;;5054115;28;20199;-83
2022/08/22 07:05:34;;;;;;;1.03;0.70;;;19.80;35.10;;;;;;5054269;28;20211;-83
2022/08/22 07:08:11;;;;;;;1.00;0.60;;;19.60;35.20;;;;;;5047882;28;20208;-75
2022/08/22 07:10:57;;;;;;;3.10;0.70;;;19.40;35.20;;;;;;5025837;28;20523;-76
2022/08/22 07:13:27;;;;;;;1.57;0.80;;;19.30;35.20;;;;;;5048841;28;20171;-77
2022/08/22 07:15:58;;;;;;;3.50;0.80;;;19.20;35.80;;;;;;5033160;28;20176;-78
2022/08/22 07:18:30;;;;;;;1.07;0.80;;;19.10;36.00;;;;;;5053087;28;20176;-78
2022/08/22 07:21:07;;;;;;;0.87;0.70;;;19.00;36.40;;;;;;5046720;28;20270;-74
2022/08/22 07:23:46;;;;;;;2.90;0.70;;;19.00;36.30;;;;;;5054100;28;20179;-74
2022/08/22 07:26:38;;;;;;;0.93;0.60;;;18.90;36.30;;;;;;5052706;28;20178;-74
2022/08/22 07:29:17;;;;;;;2.40;0.80;;;18.80;36.70;;;;;;5034102;28;20268;-72
2022/08/22 07:31:55;;;;;;;1.40;0.80;;;18.70;37.20;;;;;;5047543;28;20267;-75
2022/08/22 07:34:36;;;;;;;1.17;0.90;;;18.70;37.50;;;;;;5043238;28;20271;-76
2022/08/22 07:37:26;;;;;;;1.20;0.80;;;18.50;37.60;;;;;;5048666;28;20656;-76
2022/08/22 07:40:05;;;;;;;0.60;0.60;;;18.40;37.90;;;;;;5032866;28;20242;-76
2022/08/22 07:43:07;;;;;;;1.23;0.80;;;18.40;38.00;;;;;;5053284;28;20179;-76
2022/08/22 07:45:46;;;;;;;2.07;0.70;;;18.30;38.20;;;;;;5027729;28;20221;-78
2022/08/22 07:48:36;;;;;;;0.93;0.80;;;18.30;38.70;;;;;;5041853;28;20184;-77
2022/08/22 07:51:43;;;;;;;2.17;0.80;;;18.10;38.90;;;;;;5051611;28;20188;-74
2022/08/22 07:54:14;;;;;;;1.23;0.80;;;18.00;38.80;;;;;;5052725;28;20190;-78
2022/08/22 07:57:03;;;;;;;1.70;0.80;;;18.00;39.30;;;;;;5053216;28;20234;-76
2022/08/22 07:59:37;;;;;;;2.30;0.83;;;17.90;39.40;;;;;;5044361;28;20192;-75
2022/08/22 08:02:11;;;;;;;2.77;0.87;;;17.80;39.70;;;;;;5045234;28;20198;-79
2022/08/22 08:04:40;;;;;;;1.20;0.87;;;17.80;39.50;;;;;;5053362;28;20531;-74
2022/08/22 08:07:10;;;;;;;2.90;1.50;;;17.80;39.90;;;;;;5051853;28;20292;-74
2022/08/22 08:09:43;;;;;;;4.57;0.97;;;17.70;40.60;;;;;;5048221;28;20195;-74
2022/08/22 08:12:14;;;;;;;1.60;1.10;;;17.60;40.30;;;;;;5043689;28;20258;-74
2022/08/22 08:14:44;;;;;;;1.20;0.83;;;17.50;40.60;;;;;;5038022;28;20176;-77
2022/08/22 08:17:29;;;;;;;1.17;0.97;;;17.50;40.70;;;;;;5050641;28;20183;-74
2022/08/22 08:19:57;;;;;;;1.63;1.40;;;17.40;40.90;;;;;;5039862;28;20206;-74
2022/08/22 08:22:26;;;;;;;2.07;1.20;;;17.40;41.40;;;;;;5044850;28;20342;-74
2022/08/22 08:24:59;;;;;;;3.57;1.40;;;17.30;41.20;;;;;;5051186;28;20622;-74
2022/08/22 08:30:20;;;;;;;2.27;1.30;;;17.30;41.20;;;;;;5044302;28;20193;-73
2022/08/22 08:32:56;;;;;;;1.37;1.10;;;17.30;41.40;;;;;;5052749;28;20197;-74
2022/08/22 08:35:30;;;;;;;3.40;1.40;;;17.20;41.50;;;;;;5052439;28;20172;-74
2022/08/22 08:38:00;;;;;;;1.13;0.90;;;17.10;41.80;;;;;;5051986;28;20182;-75
2022/08/22 08:40:34;;;;;;;1.90;1.17;;;17.00;41.70;;;;;;5040406;28;20235;-74
2022/08/22 08:43:26;;;;;;;3.33;1.50;;;17.00;42.00;;;;;;5045786;28;20179;-75
2022/08/22 08:45:56;;;;;;;1.70;1.33;;;17.00;42.10;;;;;;5046495;28;20206;-75
2022/08/22 08:48:46;;;;;;;2.63;1.30;;;16.90;42.30;;;;;;5052690;28;20187;-74
2022/08/22 08:51:25;;;;;;;3.93;1.47;;;16.80;42.70;;;;;;5052559;28;20187;-75
2022/08/22 08:53:56;;;;;;;2.50;1.00;;;16.80;42.90;;;;;;5051678;28;20172;-75
2022/08/22 08:56:39;;;;;;;2.90;1.20;;;16.60;43.10;;;;;;5040251;28;20212;-75
2022/08/22 08:59:12;;;;;;;2.83;0.87;;;16.50;43.50;;;;;;5036756;28;20180;-75
2022/08/22 09:01:56;;;;;;;2.20;1.10;;;16.40;43.50;;;;;;5029860;28;20566;-75
2022/08/22 09:04:35;;;;;;;1.13;1.00;;;16.40;43.70;;;;;;5049212;28;20170;-75
2022/08/22 09:07:12;;;;;;;1.90;1.10;;;16.30;43.70;;;;;;5042147;28;20210;-75
2022/08/22 09:09:54;;;;;;;2.37;1.23;;;16.30;44.10;;;;;;5032463;28;20174;-75
2022/08/22 09:12:59;;;;;;;2.73;1.10;;;16.20;44.40;;;;;;5040281;28;20724;-76
2022/08/22 09:15:48;;;;;;;1.50;1.20;;;16.20;45.00;;;;;;5047785;28;20184;-76
2022/08/22 09:18:53;;;;;;;1.77;1.40;;;16.20;45.10;;;;;;5044008;28;20187;-76
2022/08/22 09:21:23;;;;;;;1.87;1.40;;;16.00;45.90;;;;;;5048071;28;20216;-76
2022/08/22 09:23:59;;;;;;;4.20;1.40;;;15.90;46.90;;;;;;5038924;28;20232;-77
2022/08/22 09:26:48;;;;;;;4.20;2.10;;;15.80;46.60;;;;;;5043294;28;20179;-76
2022/08/22 09:29:24;;;;;;;8.03;2.83;;;15.90;46.50;;;;;;5031457;28;20543;-76
2022/08/22 09:32:09;;;;;;;3.63;1.30;;;15.80;46.50;;;;;;5032428;28;20196;-76
2022/08/22 09:35:09;;;;;;;2.63;1.37;;;15.80;46.40;;;;;;5052236;28;20177;-76
2022/08/22 09:38:16;;;;;;;1.87;1.00;;;15.70;46.70;;;;;;5042025;28;20187;-76
2022/08/22 09:40:50;;;;;;;2.73;1.10;;;15.60;46.40;;;;;;5045547;28;20242;-77
2022/08/22 09:43:23;;;;;;;5.77;1.20;;;15.60;46.80;;;;;;5045958;28;20185;-76
2022/08/22 09:46:26;;;;;;;2.07;1.50;;;15.50;47.30;;;;;;5037365;28;20217;-76
2022/08/22 09:49:12;;;;;;;3.80;1.27;;;15.50;47.40;;;;;;5044787;28;20185;-76
2022/08/22 09:52:04;;;;;;;3.20;1.30;;;15.40;47.70;;;;;;5036977;28;20178;-76
2022/08/22 09:54:44;;;;;;;1.47;1.37;;;15.30;48.10;;;;;;5036674;28;20187;-75
2022/08/22 09:57:22;;;;;;;4.33;1.40;;;15.30;47.60;;;;;;5038843;28;22018;-76
2022/08/22 10:00:34;;;;;;;8.97;1.70;;;15.30;47.90;;;;;;5045527;28;20184;-75
2022/08/22 10:03:31;;;;;;;3.97;1.23;;;15.20;48.30;;;;;;5055593;28;20180;-77
2022/08/22 10:06:16;;;;;;;2.27;1.20;;;15.20;48.50;;;;;;5043813;28;20192;-78
2022/08/22 10:08:55;;;;;;;2.30;1.30;;;15.20;48.50;;;;;;5049093;28;20191;-79
2022/08/22 10:11:52;;;;;;;3.70;1.30;;;15.20;46.90;;;;;;5046410;28;20211;-77
2022/08/22 10:14:27;;;;;;;2.00;1.20;;;15.40;47.10;;;;;;5052494;28;20181;-76
2022/08/22 10:16:57;;;;;;;2.03;1.17;;;15.40;46.70;;;;;;5050502;28;20172;-76
2022/08/22 10:19:28;;;;;;;2.10;1.20;;;15.40;46.70;;;;;;5040510;28;20183;-76
2022/08/22 10:22:16;;;;;;;3.47;1.47;;;15.40;46.60;;;;;;5047737;28;20568;-75
2022/08/22 10:25:06;;;;;;;2.30;1.23;;;15.30;46.90;;;;;;5054524;28;20254;-79
2022/08/22 10:28:11;;;;;;;1.60;1.00;;;15.30;46.80;;;;;;5045817;28;20181;-77
2022/08/22 10:30:50;;;;;;;2.87;1.10;;;15.30;46.40;;;;;;5041901;28;20231;-76
2022/08/22 10:33:40;;;;;;;1.60;1.10;;;15.30;46.80;;;;;;5054300;28;20661;-77
2022/08/22 10:36:16;;;;;;;2.40;1.30;;;15.30;47.00;;;;;;5042491;28;20202;-76
2022/08/22 10:38:44;;;;;;;3.07;1.03;;;15.30;46.90;;;;;;5043969;28;20181;-77
2022/08/22 10:41:34;;;;;;;2.97;1.03;;;15.20;47.30;;;;;;5054440;28;20207;-75
2022/08/22 10:44:17;;;;;;;1.57;1.10;;;15.20;46.60;;;;;;5040926;28;20234;-75
2022/08/22 10:47:00;;;;;;;2.17;1.13;;;15.20;46.40;;;;;;5048862;28;20191;-78
2022/08/22 10:49:35;;;;;;;1.03;0.90;;;15.30;45.90;;;;;;5046360;28;20571;-76
2022/08/22 10:52:10;;;;;;;3.73;1.20;;;15.30;45.70;;;;;;5047612;28;20175;-76
2022/08/22 10:55:19;;;;;;;1.63;1.00;;;15.40;45.50;;;;;;5027770;28;20180;-75
2022/08/22 10:58:03;;;;;;;1.77;1.10;;;15.40;45.30;;;;;;5023353;28;20279;-76
2022/08/22 11:00:45;;;;;;;1.67;0.97;;;15.40;45.50;;;;;;5015002;28;20300;-77
2022/08/22 11:03:25;;;;;;;1.10;0.93;;;15.50;45.70;;;;;;5035483;28;20245;-77
2022/08/22 11:05:59;;;;;;;2.13;1.10;;;15.50;45.80;;;;;;5044824;28;20248;-77
2022/08/22 11:08:58;;;;;;;1.10;0.90;;;15.50;46.20;;;;;;5049429;28;20185;-77
2022/08/22 11:11:43;;;;;;;2.57;1.17;;;15.60;46.10;;;;;;5054033;28;20186;-77
2022/08/22 11:14:22;;;;;;;1.20;1.00;;;15.70;45.30;;;;;;5054240;28;20179;-78
2022/08/22 11:17:17;;;;;;;7.47;6.77;;;15.70;45.50;;;;;;5030091;28;20580;-77
2022/08/22 11:20:08;;;;;;;34.43;29.10;;;15.70;45.10;;;;;;5039932;28;20188;-77
2022/08/22 11:23:06;;;;;;;3.27;2.13;;;15.70;45.60;;;;;;5045165;28;20184;-78
2022/08/22 11:26:01;;;;;;;3.17;1.90;;;15.70;45.50;;;;;;5022325;28;20185;-77
2022/08/22 11:28:55;;;;;;;4.70;2.20;;;15.70;45.40;;;;;;5034634;28;20214;-78
2022/08/22 11:31:40;;;;;;;11.60;3.10;;;15.70;45.40;;;;;;5046381;28;20645;-77
2022/08/22 11:34:15;;;;;;;9.00;2.63;;;15.80;45.40;;;;;;5047121;28;20181;-77
2022/08/22 11:36:50;;;;;;;6.80;1.80;;;15.80;45.50;;;;;;5053988;28;20529;-78
2022/08/22 11:39:39;;;;;;;5.47;1.50;;;15.80;46.30;;;;;;5044683;28;20216;-78
2022/08/22 11:42:14;;;;;;;5.37;1.40;;;15.80;47.10;;;;;;5036413;28;20192;-78
2022/08/22 11:44:50;;;;;;;6.63;1.63;;;15.80;47.00;;;;;;5041723;28;20177;-78
2022/08/22 11:47:21;;;;;;;4.57;1.50;;;15.80;47.00;;;;;;5040651;28;20234;-78
2022/08/22 11:50:23;;;;;;;1.93;1.10;;;15.80;46.70;;;;;;5031965;28;20204;-77
2022/08/22 11:53:44;;;;;;;3.17;1.20;;;15.80;46.90;;;;;;5027243;28;20209;-77
2022/08/22 11:56:34;;;;;;;2.83;1.13;;;15.80;47.10;;;;;;5016969;28;20184;-78
2022/08/22 11:59:22;;;;;;;3.87;1.00;;;15.80;46.70;;;;;;5039776;28;20530;-78
2022/08/22 12:02:00;;;;;;;6.07;1.37;;;15.80;46.50;;;;;;5034085;28;20546;-77
2022/08/22 12:04:39;;;;;;;2.20;1.20;;;15.80;46.80;;;;;;5050230;28;20169;-77
2022/08/22 12:07:14;;;;;;;4.07;1.30;;;15.70;47.60;;;;;;5033835;28;20187;-78
2022/08/22 12:09:45;;;;;;;2.80;1.53;;;15.60;48.00;;;;;;5039417;28;20173;-78
2022/08/22 12:12:21;;;;;;;5.60;1.43;;;15.50;48.30;;;;;;5038879;28;20178;-77
2022/08/22 12:15:01;;;;;;;3.00;1.60;;;15.40;48.80;;;;;;5037455;28;20213;-77
2022/08/22 12:17:53;;;;;;;3.57;1.53;;;15.30;49.20;;;;;;5046038;28;20222;-78
2022/08/22 12:20:35;;;;;;;2.97;1.50;;;15.30;49.10;;;;;;5052814;28;20303;-77
2022/08/22 12:23:37;;;;;;;5.67;1.40;;;15.20;49.70;;;;;;5049589;28;20179;-78
2022/08/22 12:26:25;;;;;;;3.73;1.50;;;15.10;49.80;;;;;;5036066;28;20193;-78
2022/08/22 12:29:01;;;;;;;3.60;1.30;;;15.10;50.00;;;;;;5045567;28;20169;-77
2022/08/22 12:31:49;;;;;;;5.20;1.20;;;15.00;50.40;;;;;;5044281;28;20184;-78
2022/08/22 12:34:28;;;;;;;4.27;1.40;;;15.00;50.30;;;;;;5037184;28;20251;-79
2022/08/22 12:37:17;;;;;;;3.50;1.80;;;14.90;49.90;;;;;;5039603;28;20659;-78
2022/08/22 12:40:18;;;;;;;2.70;0.90;;;14.90;50.50;;;;;;5029846;28;20215;-75
2022/08/22 12:43:04;;;;;;;1.67;1.20;;;15.20;47.50;;;;;;5056049;28;20290;-76
2022/08/22 12:45:46;;;;;;;1.40;0.80;;;15.30;48.00;;;;;;5038314;28;20676;-78
2022/08/22 12:48:50;;;;;;;2.17;0.90;;;15.30;47.40;;;;;;5045381;28;20178;-78
2022/08/22 12:51:36;;;;;;;2.17;0.90;;;15.50;46.00;;;;;;5040475;28;20180;-77
2022/08/22 12:54:09;;;;;;;1.63;0.80;;;15.70;44.70;;;;;;5051896;28;20179;-77
2022/08/22 12:57:03;;;;;;;1.17;0.80;;;15.80;44.60;;;;;;5043911;28;20200;-77
2022/08/22 12:59:45;;;;;;;2.50;0.73;;;15.80;44.60;;;;;;5047749;28;20184;-77
2022/08/22 13:02:22;;;;;;;1.90;0.80;;;15.80;44.90;;;;;;5040055;28;20195;-78
2022/08/22 13:04:56;;;;;;;1.57;0.97;;;15.80;44.90;;;;;;5047261;28;20176;-78
2022/08/22 13:07:30;;;;;;;1.87;1.07;;;16.00;44.00;;;;;;5045269;28;20229;-77
2022/08/22 13:10:08;;;;;;;1.53;0.90;;;16.00;44.40;;;;;;5050267;28;20196;-79
2022/08/22 13:12:44;;;;;;;1.47;0.80;;;16.00;44.20;;;;;;5052393;28;20181;-78
2022/08/22 13:15:23;;;;;;;0.87;0.80;;;16.00;43.80;;;;;;5050095;28;20587;-77
2022/08/22 13:17:52;;;;;;;2.33;0.90;;;16.10;43.20;;;;;;5052321;28;20186;-77
2022/08/22 13:20:33;;;;;;;0.93;0.70;;;16.10;43.60;;;;;;5052054;28;20207;-76
2022/08/22 13:23:06;;;;;;;0.73;0.73;;;16.10;43.70;;;;;;5054395;28;20187;-76
2022/08/22 13:26:11;;;;;;;1.87;0.87;;;15.90;44.20;;;;;;5055280;28;20267;-78
2022/08/22 13:28:47;;;;;;;1.00;0.70;;;16.00;44.00;;;;;;5055482;28;20272;-78
2022/08/22 13:31:36;;;;;;;4.10;0.97;;;16.00;44.40;;;;;;5055825;28;20183;-77
2022/08/22 13:34:12;;;;;;;2.70;0.70;;;16.20;44.10;;;;;;5054704;28;20518;-77
2022/08/22 13:36:47;;;;;;;2.57;0.90;;;16.20;44.20;;;;;;5038326;28;20700;-78
2022/08/22 13:39:15;;;;;;;2.80;0.77;;;16.30;44.00;;;;;;5054856;28;20215;-77
2022/08/22 13:41:58;;;;;;;1.37;0.70;;;16.30;44.00;;;;;;5039766;28;20878;-76
2022/08/22 13:44:30;;;;;;;2.13;0.83;;;16.20;44.00;;;;;;5042880;28;20173;-77
2022/08/22 13:47:21;;;;;;;2.77;0.70;;;16.30;44.00;;;;;;5046822;28;20187;-81
2022/08/22 13:50:25;;;;;;;2.57;0.70;;;16.40;43.30;;;;;;5030682;28;20172;-76
2022/08/22 13:53:00;;;;;;;3.47;1.00;;;16.30;44.10;;;;;;5033725;28;20184;-77
2022/08/22 13:55:50;;;;;;;0.70;0.70;;;16.20;45.10;;;;;;5036523;28;20207;-77
2022/08/22 13:58:26;;;;;;;1.63;0.80;;;16.20;44.30;;;;;;5038791;28;20176;-77
2022/08/22 14:00:54;;;;;;;2.80;0.80;;;16.10;45.10;;;;;;5053536;28;20229;-75
2022/08/22 14:03:46;;;;;;;0.80;0.70;;;16.10;44.60;;;;;;5038608;28;20306;-77
2022/08/22 14:06:34;;;;;;;1.77;0.90;;;16.20;44.60;;;;;;5045596;28;20180;-77
2022/08/22 14:09:11;;;;;;;3.97;0.90;;;16.10;45.70;;;;;;5050225;28;20181;-75
2022/08/22 14:12:03;;;;;;;4.27;1.30;;;16.00;45.90;;;;;;5045559;28;20164;-77